Time;durP1;ratioP1;P1;durP2;ratioP2;P2;SDS_P1;SDS_P2;PMS_P1;PMS_P2;Temp;Humidity;BMP_temperature;BMP_pressure;BME280_temperature;BME280_humidity;BME280_pressure;Samples;Min_cycle;Max_cycle;Signal;HPM_P1;HPM_P2
2022/11/14 00:00:22;;;;;;;20.53;16.10;;;8.40;83.70;;;;;;5025056;28;20215;-63
2022/11/14 00:02:48;;;;;;;20.67;15.03;;;8.50;83.70;;;;;;5014706;28;20504;-63
2022/11/14 00:05:13;;;;;;;22.70;15.63;;;8.50;83.70;;;;;;5032008;28;20525;-63
2022/11/14 00:07:39;;;;;;;20.93;15.70;;;8.50;83.70;;;;;;5014326;28;20234;-63
2022/11/14 00:10:05;;;;;;;24.37;18.73;;;8.50;83.70;;;;;;4998805;28;20195;-63
2022/11/14 00:12:31;;;;;;;22.27;15.67;;;8.50;83.90;;;;;;4997723;28;20271;-63
2022/11/14 00:14:56;;;;;;;21.70;15.97;;;8.50;84.00;;;;;;4998409;28;20509;-63
2022/11/14 00:17:22;;;;;;;22.87;17.80;;;8.50;84.10;;;;;;5014315;28;20262;-63
2022/11/14 00:19:48;;;;;;;20.17;15.37;;;8.50;84.20;;;;;;5014550;28;20259;-63
2022/11/14 00:22:14;;;;;;;27.60;19.40;;;8.50;84.20;;;;;;4998130;28;20207;-63
2022/11/14 00:24:39;;;;;;;26.17;17.07;;;8.50;84.20;;;;;;5014313;28;20658;-63
2022/11/14 00:27:05;;;;;;;23.33;16.50;;;8.40;84.20;;;;;;5013939;28;20184;-63
2022/11/14 00:29:31;;;;;;;23.17;15.70;;;8.50;84.20;;;;;;4997306;28;20661;-63
2022/11/14 00:31:56;;;;;;;22.93;16.67;;;8.50;84.00;;;;;;5014005;28;20221;-63
2022/11/14 00:34:22;;;;;;;20.07;15.43;;;8.50;83.90;;;;;;5013848;28;20188;-63
2022/11/14 00:36:48;;;;;;;19.90;15.70;;;8.50;83.90;;;;;;4996461;28;20197;-63
2022/11/14 00:39:14;;;;;;;20.03;15.60;;;8.50;83.80;;;;;;4997375;28;20254;-63
2022/11/14 00:41:40;;;;;;;18.83;14.83;;;8.40;83.80;;;;;;5030345;28;20208;-63
2022/11/14 00:44:06;;;;;;;19.17;14.40;;;8.50;83.80;;;;;;5021411;28;20473;-63
2022/11/14 00:46:33;;;;;;;20.30;15.97;;;8.50;83.80;;;;;;5013520;28;20455;-63
2022/11/14 00:48:58;;;;;;;20.03;15.53;;;8.50;83.80;;;;;;5013438;28;20191;-63
2022/11/14 00:51:24;;;;;;;21.67;16.67;;;8.50;83.80;;;;;;5004628;28;20430;-63
2022/11/14 00:53:49;;;;;;;24.03;17.03;;;8.40;83.90;;;;;;4996339;28;20201;-63
2022/11/14 00:56:15;;;;;;;21.83;16.33;;;8.40;84.20;;;;;;5013112;28;20195;-63
2022/11/14 00:58:41;;;;;;;18.10;14.60;;;8.40;84.40;;;;;;4994604;28;20199;-63
2022/11/14 01:01:07;;;;;;;19.50;15.27;;;8.40;84.30;;;;;;5010821;28;20301;-63
2022/11/14 01:03:32;;;;;;;16.97;14.90;;;8.40;84.30;;;;;;4994388;28;20184;-63
2022/11/14 01:06:04;;;;;;;18.57;14.27;;;8.40;84.20;;;;;;5011792;28;20184;-63
2022/11/14 01:08:30;;;;;;;21.93;15.30;;;8.30;84.20;;;;;;5020313;28;20184;-63
2022/11/14 01:10:56;;;;;;;19.80;14.83;;;8.30;84.20;;;;;;5000239;28;20438;-63
2022/11/14 01:13:22;;;;;;;21.13;14.20;;;8.30;84.20;;;;;;5029550;28;20195;-63
2022/11/14 01:15:48;;;;;;;17.40;14.00;;;8.30;84.20;;;;;;4994993;28;20188;-63
2022/11/14 01:18:17;;;;;;;18.40;13.50;;;8.20;84.20;;;;;;5010889;28;20227;-63
2022/11/14 01:20:44;;;;;;;17.90;14.67;;;8.20;84.20;;;;;;5029637;28;20454;-63
2022/11/14 01:23:12;;;;;;;18.67;14.27;;;8.10;84.30;;;;;;5029603;28;20435;-63
2022/11/14 01:25:39;;;;;;;18.30;13.67;;;8.10;84.40;;;;;;5029126;28;20427;-63
2022/11/14 01:28:10;;;;;;;18.30;14.53;;;8.00;84.50;;;;;;5003572;28;20993;-63
2022/11/14 01:30:36;;;;;;;16.67;13.03;;;8.00;84.60;;;;;;5013169;28;20418;-63
2022/11/14 01:33:03;;;;;;;17.70;13.97;;;8.00;84.70;;;;;;4997051;28;20462;-63
2022/11/14 01:35:30;;;;;;;16.87;14.00;;;8.00;84.80;;;;;;5016578;28;20419;-63
2022/11/14 01:37:56;;;;;;;20.30;16.17;;;8.00;84.90;;;;;;5014651;28;20415;-63
2022/11/14 01:40:22;;;;;;;24.60;17.60;;;8.00;84.90;;;;;;5025017;28;20593;-63
2022/11/14 01:43:09;;;;;;;24.50;16.70;;;8.00;85.00;;;;;;5013087;28;20208;-63
2022/11/14 01:45:47;;;;;;;26.17;18.90;;;8.00;85.00;;;;;;5022839;28;20183;-63
2022/11/14 01:48:31;;;;;;;19.77;15.63;;;8.00;84.90;;;;;;5011884;28;20521;-63
2022/11/14 01:51:18;;;;;;;23.63;17.73;;;8.00;84.90;;;;;;5006590;28;20437;-63
2022/11/14 01:53:46;;;;;;;22.90;16.00;;;8.00;85.00;;;;;;5029135;28;20497;-63
2022/11/14 01:56:16;;;;;;;22.97;16.87;;;8.00;85.00;;;;;;5044938;28;20434;-63
2022/11/14 01:58:47;;;;;;;23.70;17.37;;;8.10;85.00;;;;;;5028147;28;20442;-63
2022/11/14 02:01:13;;;;;;;25.93;17.63;;;8.00;85.00;;;;;;5014508;28;20562;-63
2022/11/14 02:03:42;;;;;;;22.53;16.20;;;8.00;85.00;;;;;;5012924;28;20521;-63
2022/11/14 02:06:12;;;;;;;21.27;16.70;;;8.00;85.10;;;;;;5012828;28;20242;-63
2022/11/14 02:08:38;;;;;;;20.30;15.93;;;8.00;85.10;;;;;;5012279;28;20830;-63
2022/11/14 02:11:04;;;;;;;20.60;15.10;;;8.00;85.10;;;;;;5000630;28;20493;-63
2022/11/14 02:13:30;;;;;;;19.73;15.80;;;8.00;85.10;;;;;;5013849;28;20470;-63
2022/11/14 02:15:56;;;;;;;21.50;15.33;;;8.00;85.10;;;;;;5031747;28;20520;-63
2022/11/14 02:18:21;;;;;;;25.47;18.57;;;8.00;85.10;;;;;;4999713;28;20235;-63
2022/11/14 02:20:47;;;;;;;23.37;17.30;;;8.00;85.10;;;;;;5041148;28;20994;-63
2022/11/14 02:23:13;;;;;;;19.33;15.00;;;8.00;85.10;;;;;;4999962;28;20635;-63
2022/11/14 02:25:40;;;;;;;17.20;14.63;;;8.00;85.10;;;;;;5034979;28;20191;-63
2022/11/14 02:28:08;;;;;;;21.90;16.30;;;8.00;85.10;;;;;;5016043;28;20513;-63
2022/11/14 02:30:33;;;;;;;21.83;16.77;;;8.00;85.20;;;;;;5040027;28;20431;-63
2022/11/14 02:32:59;;;;;;;19.70;15.13;;;8.00;85.20;;;;;;5015863;28;20496;-63
2022/11/14 02:35:25;;;;;;;19.30;15.00;;;8.00;85.20;;;;;;5016706;28;20195;-63
2022/11/14 02:37:50;;;;;;;21.93;16.97;;;7.90;85.20;;;;;;5000628;28;20192;-63
2022/11/14 02:40:16;;;;;;;23.93;16.90;;;8.00;85.20;;;;;;4999810;28;20283;-63
2022/11/14 02:42:42;;;;;;;19.97;15.33;;;7.90;85.20;;;;;;4996910;28;20189;-63
2022/11/14 02:45:09;;;;;;;18.43;13.77;;;7.90;85.30;;;;;;5015976;28;20192;-63
2022/11/14 02:47:35;;;;;;;18.87;14.33;;;7.90;85.30;;;;;;4999901;28;20548;-63
2022/11/14 02:50:01;;;;;;;18.20;13.40;;;7.90;85.40;;;;;;5037992;28;20446;-63
2022/11/14 02:52:26;;;;;;;17.60;12.63;;;7.90;85.40;;;;;;5015459;28;20198;-63
2022/11/14 02:54:52;;;;;;;17.63;14.50;;;7.90;85.40;;;;;;5003515;28;20199;-63
2022/11/14 02:57:18;;;;;;;20.27;15.13;;;7.90;85.50;;;;;;5015826;28;20188;-63
2022/11/14 02:59:43;;;;;;;18.00;13.33;;;7.90;85.50;;;;;;5024320;28;20195;-63
2022/11/14 03:02:09;;;;;;;18.07;14.13;;;7.90;85.60;;;;;;5015566;28;20265;-63
2022/11/14 03:04:34;;;;;;;19.03;14.37;;;7.90;85.60;;;;;;5014934;28;20176;-63
2022/11/14 03:07:00;;;;;;;16.63;13.30;;;7.90;85.60;;;;;;4995334;28;20199;-63
2022/11/14 03:09:26;;;;;;;19.07;14.07;;;7.90;85.50;;;;;;5015132;28;20721;-63
2022/11/14 03:11:51;;;;;;;22.77;16.10;;;7.90;85.60;;;;;;5014781;28;20199;-63
2022/11/14 03:14:17;;;;;;;19.40;14.23;;;7.90;85.60;;;;;;5015333;28;20188;-63
2022/11/14 03:16:42;;;;;;;19.40;16.40;;;7.90;85.70;;;;;;5015469;28;20650;-63
2022/11/14 03:19:08;;;;;;;20.47;15.30;;;7.90;85.70;;;;;;5015605;28;20235;-63
2022/11/14 03:21:34;;;;;;;21.13;17.33;;;7.90;85.80;;;;;;5014542;28;20200;-63
2022/11/14 03:23:59;;;;;;;22.93;18.37;;;7.90;85.70;;;;;;5015492;28;20188;-63
2022/11/14 03:26:25;;;;;;;20.27;15.33;;;7.90;85.70;;;;;;5015153;28;20191;-63
2022/11/14 03:28:51;;;;;;;23.30;17.10;;;7.90;85.70;;;;;;4998515;28;20183;-63
2022/11/14 03:31:16;;;;;;;21.00;15.87;;;7.90;85.80;;;;;;4998816;28;20192;-63
2022/11/14 03:33:42;;;;;;;19.93;15.30;;;7.90;85.80;;;;;;5023128;28;20179;-63
2022/11/14 03:36:08;;;;;;;20.90;15.67;;;7.90;85.90;;;;;;4998336;28;20249;-63
2022/11/14 03:38:34;;;;;;;18.03;14.40;;;7.90;85.80;;;;;;5031669;28;20669;-63
2022/11/14 03:41:00;;;;;;;19.40;15.60;;;7.90;85.80;;;;;;4998693;28;20208;-63
2022/11/14 03:43:30;;;;;;;20.60;15.60;;;7.90;85.90;;;;;;5003098;28;20181;-63
2022/11/14 03:46:00;;;;;;;20.17;14.77;;;7.90;85.90;;;;;;5014918;28;20437;-63
2022/11/14 03:48:27;;;;;;;18.77;14.47;;;7.90;85.90;;;;;;5015369;28;20422;-63
2022/11/14 03:50:53;;;;;;;20.77;16.37;;;7.90;85.80;;;;;;5006684;28;20482;-63
2022/11/14 03:53:19;;;;;;;24.83;16.30;;;7.90;85.80;;;;;;5011879;28;20450;-63
2022/11/14 03:55:45;;;;;;;18.97;14.33;;;7.90;85.80;;;;;;5003690;28;20183;-63
2022/11/14 03:58:11;;;;;;;21.33;15.33;;;7.90;85.80;;;;;;5014702;28;20679;-63
2022/11/14 04:00:36;;;;;;;20.40;15.60;;;7.90;85.80;;;;;;4995187;28;20235;-63
2022/11/14 04:03:02;;;;;;;20.53;16.33;;;7.90;85.90;;;;;;4997768;28;20219;-63
2022/11/14 04:05:28;;;;;;;17.23;13.73;;;7.90;85.90;;;;;;5013840;28;20195;-63
2022/11/14 04:07:54;;;;;;;17.17;13.17;;;7.90;85.90;;;;;;5010773;28;20243;-63
2022/11/14 04:10:19;;;;;;;16.43;13.07;;;7.90;85.90;;;;;;5000773;28;20196;-63
2022/11/14 04:12:53;;;;;;;20.07;13.87;;;8.00;86.00;;;;;;5006253;28;20196;-62
2022/11/14 04:15:20;;;;;;;22.43;15.43;;;7.90;86.00;;;;;;5027616;28;20184;-64
2022/11/14 04:17:46;;;;;;;17.40;13.30;;;7.90;86.00;;;;;;5028220;28;20459;-64
2022/11/14 04:20:13;;;;;;;17.90;13.33;;;7.90;86.00;;;;;;5036272;28;20850;-64
2022/11/14 04:22:38;;;;;;;20.23;15.33;;;8.00;86.00;;;;;;5013497;28;20544;-64
2022/11/14 04:25:05;;;;;;;17.63;13.27;;;7.90;86.10;;;;;;5041245;28;20513;-64
2022/11/14 04:27:31;;;;;;;18.37;13.73;;;8.00;86.10;;;;;;5031845;28;20223;-64
2022/11/14 04:29:57;;;;;;;17.03;14.20;;;8.00;86.10;;;;;;5046939;28;20454;-64
2022/11/14 04:32:22;;;;;;;19.73;13.73;;;8.00;86.10;;;;;;5027527;28;20188;-64
2022/11/14 04:34:48;;;;;;;16.90;13.93;;;8.00;86.10;;;;;;5014274;28;20199;-64
2022/11/14 04:37:14;;;;;;;18.37;14.57;;;8.00;86.10;;;;;;5013766;28;20184;-64
2022/11/14 04:39:39;;;;;;;15.73;12.13;;;8.00;86.20;;;;;;5012951;28;20571;-64
2022/11/14 04:42:05;;;;;;;20.40;15.83;;;8.00;86.20;;;;;;4996743;28;20208;-64
2022/11/14 04:44:31;;;;;;;18.00;13.97;;;8.00;86.20;;;;;;5002228;28;20652;-64
2022/11/14 04:46:56;;;;;;;17.07;13.47;;;8.00;86.20;;;;;;4994428;28;20180;-64
2022/11/14 04:49:22;;;;;;;15.80;12.30;;;8.00;86.20;;;;;;5000069;28;20199;-64
2022/11/14 04:51:48;;;;;;;19.23;13.20;;;8.00;86.20;;;;;;5013332;28;20192;-64
2022/11/14 04:54:14;;;;;;;16.27;12.23;;;8.00;86.10;;;;;;5032816;28;20195;-64
2022/11/14 04:56:40;;;;;;;18.47;13.60;;;8.00;86.10;;;;;;5004749;28;20430;-64
2022/11/14 04:59:05;;;;;;;22.63;15.10;;;8.10;86.20;;;;;;5013442;28;20188;-64
2022/11/14 05:01:31;;;;;;;19.87;13.97;;;8.00;86.20;;;;;;5029719;28;20247;-63
2022/11/14 05:03:57;;;;;;;18.57;14.33;;;8.10;86.20;;;;;;5013697;28;20188;-64
2022/11/14 05:06:23;;;;;;;20.40;14.67;;;8.10;86.20;;;;;;5012423;28;20199;-63
2022/11/14 05:08:48;;;;;;;17.97;14.60;;;8.10;86.20;;;;;;5024213;28;20195;-61
2022/11/14 05:11:15;;;;;;;23.40;15.33;;;8.10;86.20;;;;;;4997743;28;20275;-61
2022/11/14 05:13:41;;;;;;;20.73;14.63;;;8.10;86.10;;;;;;4998245;28;20200;-61
2022/11/14 05:16:07;;;;;;;22.43;15.30;;;8.10;86.10;;;;;;5013509;28;20438;-61
2022/11/14 05:18:33;;;;;;;17.83;13.40;;;8.10;86.10;;;;;;5013364;28;20565;-61
2022/11/14 05:20:59;;;;;;;17.47;13.43;;;8.00;86.00;;;;;;5013351;28;20218;-62
2022/11/14 05:23:26;;;;;;;18.60;13.77;;;8.00;86.00;;;;;;5012630;28;20189;-61
2022/11/14 05:26:03;;;;;;;21.57;15.50;;;8.10;86.00;;;;;;5029504;28;20462;-61
2022/11/14 05:28:29;;;;;;;18.67;13.37;;;8.10;86.00;;;;;;5009397;28;20561;-61
2022/11/14 05:31:07;;;;;;;21.77;14.83;;;8.10;86.00;;;;;;5013356;28;20419;-61
2022/11/14 05:33:34;;;;;;;23.40;14.63;;;8.10;85.90;;;;;;5032333;28;20194;-61
2022/11/14 05:36:08;;;;;;;20.67;14.73;;;8.10;85.90;;;;;;5011868;28;20450;-61
2022/11/14 05:38:34;;;;;;;22.03;14.27;;;8.20;85.90;;;;;;5025904;28;20829;-61
2022/11/14 05:41:05;;;;;;;19.73;14.20;;;8.20;85.80;;;;;;5028190;28;20475;-61
2022/11/14 05:43:30;;;;;;;18.50;13.07;;;8.20;85.80;;;;;;5028055;28;20218;-61
2022/11/14 05:46:00;;;;;;;20.13;15.30;;;8.20;85.80;;;;;;5027621;28;20480;-61
2022/11/14 05:48:27;;;;;;;16.33;12.70;;;8.20;85.80;;;;;;5011728;28;20259;-61
2022/11/14 05:50:59;;;;;;;19.87;14.87;;;8.20;85.80;;;;;;5011560;28;20448;-61
2022/11/14 05:53:26;;;;;;;17.17;13.07;;;8.20;85.80;;;;;;5027425;28;20457;-61
2022/11/14 05:55:52;;;;;;;19.07;14.13;;;8.30;85.80;;;;;;5010385;28;20469;-61
2022/11/14 05:58:17;;;;;;;18.40;13.90;;;8.30;85.70;;;;;;5012144;28;20414;-61
2022/11/14 06:00:43;;;;;;;16.77;13.83;;;8.30;85.70;;;;;;5013180;28;20254;-62
2022/11/14 06:03:09;;;;;;;19.73;14.10;;;8.30;85.70;;;;;;4998376;28;20216;-62
2022/11/14 06:05:35;;;;;;;21.37;15.40;;;8.20;85.70;;;;;;5012220;28;20547;-62
2022/11/14 06:08:01;;;;;;;16.23;13.57;;;8.20;85.70;;;;;;5003233;28;20193;-62
2022/11/14 06:10:27;;;;;;;18.37;13.37;;;8.20;85.80;;;;;;5012165;28;20577;-62
2022/11/14 06:12:53;;;;;;;21.10;14.67;;;8.30;85.70;;;;;;4995510;28;20496;-62
2022/11/14 06:15:19;;;;;;;16.60;12.50;;;8.30;85.80;;;;;;5012463;28;20246;-62
2022/11/14 06:17:45;;;;;;;16.93;12.73;;;8.30;85.70;;;;;;5011953;28;20442;-61
2022/11/14 06:20:14;;;;;;;17.03;12.67;;;8.30;85.70;;;;;;4993201;28;20554;-61
2022/11/14 06:22:40;;;;;;;15.17;12.33;;;8.30;85.70;;;;;;5024223;28;20207;-61
2022/11/14 06:25:06;;;;;;;13.83;11.33;;;8.30;85.70;;;;;;5011772;28;20462;-62
2022/11/14 06:27:32;;;;;;;17.83;12.53;;;8.30;85.70;;;;;;4998492;28;20658;-61
2022/11/14 06:29:57;;;;;;;15.67;12.80;;;8.30;85.70;;;;;;5028520;28;20449;-61
2022/11/14 06:32:23;;;;;;;17.87;14.03;;;8.30;85.70;;;;;;4994651;28;20794;-61
2022/11/14 06:34:49;;;;;;;16.67;12.97;;;8.40;85.70;;;;;;5011418;28;20192;-61
2022/11/14 06:37:14;;;;;;;16.10;12.37;;;8.40;85.70;;;;;;5011885;28;20261;-61
2022/11/14 06:39:40;;;;;;;18.47;13.37;;;8.40;85.60;;;;;;5009592;28;20195;-62
2022/11/14 06:42:06;;;;;;;15.20;12.30;;;8.40;85.60;;;;;;5006014;28;20349;-61
2022/11/14 06:44:31;;;;;;;15.40;12.53;;;8.40;85.60;;;;;;5011598;28;20194;-62
2022/11/14 06:46:57;;;;;;;16.90;13.47;;;8.50;85.60;;;;;;5022680;28;20210;-61
2022/11/14 06:49:23;;;;;;;21.43;14.10;;;8.40;85.60;;;;;;5009633;28;20209;-61
2022/11/14 06:51:50;;;;;;;18.77;14.07;;;8.50;85.70;;;;;;5026138;28;20202;-62
2022/11/14 06:54:16;;;;;;;19.97;14.97;;;8.50;85.70;;;;;;5024884;28;20510;-62
2022/11/14 06:56:42;;;;;;;20.37;15.00;;;8.50;85.70;;;;;;5012876;28;20545;-62
2022/11/14 06:59:08;;;;;;;18.47;14.43;;;8.60;85.70;;;;;;5013634;28;20195;-62
2022/11/14 07:01:33;;;;;;;18.23;14.20;;;8.60;85.70;;;;;;5034025;28;20213;-61
2022/11/14 07:04:01;;;;;;;19.87;15.57;;;8.60;85.60;;;;;;5014678;28;20449;-61
2022/11/14 07:06:28;;;;;;;20.37;14.67;;;8.70;85.60;;;;;;5012700;28;20192;-61
2022/11/14 07:08:55;;;;;;;17.70;12.93;;;8.70;85.50;;;;;;5023335;28;20439;-61
2022/11/14 07:11:27;;;;;;;17.63;12.73;;;8.70;85.50;;;;;;5013505;28;20484;-61
2022/11/14 07:13:58;;;;;;;22.53;13.90;;;8.80;85.40;;;;;;5033807;28;20438;-62
2022/11/14 07:16:34;;;;;;;19.10;13.20;;;8.80;85.30;;;;;;5028274;28;20481;-61
2022/11/14 07:19:01;;;;;;;20.40;14.70;;;8.80;85.30;;;;;;5009195;28;20490;-62
2022/11/14 07:21:29;;;;;;;19.73;14.13;;;8.90;85.20;;;;;;5028839;28;20600;-61
2022/11/14 07:23:55;;;;;;;17.77;14.00;;;8.90;85.10;;;;;;5012916;28;20439;-62
2022/11/14 07:26:22;;;;;;;16.10;13.03;;;9.00;85.00;;;;;;4986186;28;20423;-62
2022/11/14 07:28:48;;;;;;;19.83;14.90;;;9.00;84.70;;;;;;5015015;28;20557;-62
2022/11/14 07:31:16;;;;;;;19.70;14.97;;;9.00;84.50;;;;;;5041775;28;20534;-61
2022/11/14 07:33:43;;;;;;;18.07;13.77;;;9.00;84.40;;;;;;5004227;28;20192;-62
2022/11/14 07:36:10;;;;;;;22.77;16.00;;;9.10;84.50;;;;;;5013344;28;20466;-61
2022/11/14 07:38:36;;;;;;;19.03;14.67;;;9.10;84.30;;;;;;4997689;28;20512;-61
2022/11/14 07:41:07;;;;;;;20.73;15.40;;;9.10;84.60;;;;;;5028621;28;20465;-61
2022/11/14 07:43:33;;;;;;;21.00;14.73;;;9.10;84.50;;;;;;5014132;28;20419;-62
2022/11/14 07:46:05;;;;;;;19.13;13.80;;;9.20;84.40;;;;;;5014214;28;20781;-62
2022/11/14 07:48:32;;;;;;;19.07;13.90;;;9.30;84.40;;;;;;5027954;28;20233;-62
2022/11/14 07:51:04;;;;;;;20.87;16.13;;;9.30;84.10;;;;;;5011830;28;20451;-62
2022/11/14 07:53:30;;;;;;;18.37;14.13;;;9.30;83.90;;;;;;5032028;28;20427;-62
2022/11/14 07:56:00;;;;;;;18.83;14.67;;;9.30;83.80;;;;;;5028367;28;20454;-62
2022/11/14 07:58:26;;;;;;;18.70;15.33;;;9.40;83.30;;;;;;5028822;28;20435;-62
2022/11/14 08:00:51;;;;;;;20.07;14.97;;;9.40;83.40;;;;;;5012775;28;20478;-62
2022/11/14 08:03:17;;;;;;;17.87;13.93;;;9.40;83.30;;;;;;5013310;28;20202;-61
2022/11/14 08:05:43;;;;;;;19.63;14.80;;;9.50;83.20;;;;;;4996340;28;20184;-62
2022/11/14 08:08:09;;;;;;;18.63;14.57;;;9.60;83.00;;;;;;5028024;28;20196;-62
2022/11/14 08:10:35;;;;;;;17.17;13.43;;;9.60;82.70;;;;;;5010938;28;20949;-63
2022/11/14 08:13:03;;;;;;;22.47;16.20;;;9.60;82.70;;;;;;5027676;28;20247;-62
2022/11/14 08:15:29;;;;;;;19.43;15.90;;;9.60;82.70;;;;;;5028764;28;20215;-62
2022/11/14 08:17:59;;;;;;;20.17;15.70;;;9.70;82.60;;;;;;4995244;28;20435;-62
2022/11/14 08:20:26;;;;;;;19.30;14.43;;;9.70;82.40;;;;;;5027603;28;20475;-63
2022/11/14 08:22:53;;;;;;;21.47;17.00;;;9.70;82.40;;;;;;5012425;28;20192;-62
2022/11/14 08:25:19;;;;;;;20.97;16.67;;;9.80;82.00;;;;;;5035781;28;20195;-62
2022/11/14 08:27:44;;;;;;;26.37;17.67;;;9.70;81.20;;;;;;5013028;28;20446;-64
2022/11/14 08:30:11;;;;;;;21.50;16.17;;;9.80;81.20;;;;;;5011582;28;20191;-63
2022/11/14 08:32:36;;;;;;;22.80;17.77;;;9.80;81.30;;;;;;5011445;28;20262;-63
2022/11/14 08:35:02;;;;;;;24.17;18.03;;;9.80;80.50;;;;;;5029076;28;21021;-63
2022/11/14 08:37:28;;;;;;;21.43;16.43;;;9.90;80.40;;;;;;5012706;28;20211;-63
2022/11/14 08:39:54;;;;;;;22.10;15.87;;;9.90;80.70;;;;;;5010823;28;20445;-63
2022/11/14 08:42:20;;;;;;;23.70;17.80;;;10.00;80.60;;;;;;5010708;28;20219;-63
2022/11/14 08:44:45;;;;;;;22.63;16.53;;;10.00;80.10;;;;;;4996913;28;20275;-63
2022/11/14 08:47:11;;;;;;;23.07;16.60;;;10.10;80.50;;;;;;5007212;28;20198;-63
2022/11/14 08:49:36;;;;;;;22.20;16.43;;;10.10;80.50;;;;;;5010847;28;20286;-63
2022/11/14 08:52:02;;;;;;;21.30;16.00;;;10.20;80.00;;;;;;5007823;28;20227;-63
2022/11/14 08:54:28;;;;;;;25.50;18.30;;;10.20;79.80;;;;;;5027124;28;20196;-63
2022/11/14 08:56:53;;;;;;;28.80;17.93;;;10.30;79.50;;;;;;5011375;28;20191;-63
2022/11/14 08:59:19;;;;;;;21.20;16.23;;;10.30;79.10;;;;;;5027329;28;20260;-63
2022/11/14 09:01:45;;;;;;;22.60;16.93;;;10.30;79.90;;;;;;5012398;28;20262;-63
2022/11/14 09:04:11;;;;;;;23.73;18.43;;;10.30;79.70;;;;;;5014440;28;20181;-62
2022/11/14 09:06:36;;;;;;;27.30;19.67;;;10.40;79.30;;;;;;5010398;28;20249;-62
2022/11/14 09:09:02;;;;;;;25.93;19.67;;;10.40;78.50;;;;;;4998053;28;20188;-62
2022/11/14 09:11:28;;;;;;;26.40;19.67;;;10.30;78.10;;;;;;5026410;28;20196;-62
2022/11/14 09:13:53;;;;;;;24.17;16.87;;;10.30;78.60;;;;;;5011820;28;20196;-62
2022/11/14 09:16:19;;;;;;;27.50;18.40;;;10.40;78.90;;;;;;5000600;28;20279;-62
2022/11/14 09:18:45;;;;;;;22.50;16.60;;;10.50;78.80;;;;;;5010674;28;20309;-62
2022/11/14 09:21:11;;;;;;;21.80;15.90;;;10.60;78.80;;;;;;5002321;28;20306;-62
2022/11/14 09:23:37;;;;;;;29.03;18.93;;;10.80;78.50;;;;;;5011460;28;20186;-62
2022/11/14 09:26:07;;;;;;;21.53;17.30;;;10.80;78.40;;;;;;5009243;28;20184;-62
2022/11/14 09:28:33;;;;;;;23.20;17.50;;;10.90;78.00;;;;;;5027398;28;20195;-62
2022/11/14 09:31:05;;;;;;;19.13;15.37;;;11.00;77.40;;;;;;5009334;28;20206;-62
2022/11/14 09:33:31;;;;;;;31.80;18.60;;;11.10;77.00;;;;;;5011957;28;20196;-62
2022/11/14 09:36:03;;;;;;;24.40;16.53;;;11.30;75.90;;;;;;5011714;28;20184;-62
2022/11/14 09:38:29;;;;;;;24.47;17.13;;;11.30;76.10;;;;;;5026936;28;20180;-62
2022/11/14 09:41:16;;;;;;;24.37;18.53;;;11.50;76.10;;;;;;5010527;28;20276;-62
2022/11/14 09:44:00;;;;;;;21.93;16.20;;;11.50;74.50;;;;;;5026003;28;20188;-61
2022/11/14 09:46:49;;;;;;;23.10;16.63;;;11.50;74.30;;;;;;5027826;28;20183;-61
2022/11/14 09:49:25;;;;;;;20.90;15.97;;;11.70;74.80;;;;;;5003482;28;20557;-62
2022/11/14 09:51:59;;;;;;;21.07;15.80;;;11.80;74.50;;;;;;5027824;28;20226;-62
2022/11/14 09:54:28;;;;;;;22.27;15.97;;;11.70;74.50;;;;;;5002421;28;20184;-62
2022/11/14 09:56:53;;;;;;;24.30;16.97;;;11.70;74.50;;;;;;5027064;28;20539;-62
2022/11/14 09:59:19;;;;;;;26.97;19.70;;;11.70;74.20;;;;;;5034180;28;20716;-62
2022/11/14 10:02:14;;;;;;;24.37;18.53;;;11.60;74.50;;;;;;5030687;28;20211;-62
2022/11/14 10:05:04;;;;;;;24.13;18.30;;;11.50;73.90;;;;;;4999752;28;20177;-62
2022/11/14 10:07:50;;;;;;;25.23;18.17;;;11.40;74.80;;;;;;5025717;28;20271;-62
2022/11/14 10:10:28;;;;;;;25.47;18.77;;;11.30;75.20;;;;;;5011145;28;20190;-62
2022/11/14 10:13:02;;;;;;;22.83;17.10;;;11.30;74.40;;;;;;5026834;28;20554;-62
2022/11/14 10:15:34;;;;;;;22.13;16.97;;;11.20;75.00;;;;;;5026760;28;20207;-63
2022/11/14 10:18:15;;;;;;;25.70;16.93;;;11.20;75.10;;;;;;5010216;28;20191;-62
2022/11/14 10:21:00;;;;;;;25.33;17.10;;;11.20;75.40;;;;;;5010039;28;20270;-62
2022/11/14 10:23:31;;;;;;;20.87;15.27;;;11.30;75.50;;;;;;5009448;28;20211;-62
2022/11/14 10:26:06;;;;;;;21.30;16.80;;;11.30;75.30;;;;;;5020710;28;20251;-62
2022/11/14 10:28:58;;;;;;;21.57;16.57;;;11.40;74.60;;;;;;5009955;28;20659;-62
2022/11/14 10:31:56;;;;;;;24.57;17.77;;;11.60;74.60;;;;;;5003931;28;20196;-62
2022/11/14 10:34:40;;;;;;;21.57;15.00;;;11.80;75.30;;;;;;5026430;28;20195;-62
2022/11/14 10:37:19;;;;;;;20.17;14.93;;;11.90;74.40;;;;;;5030573;28;20195;-62
2022/11/14 10:39:51;;;;;;;21.83;16.90;;;12.00;73.20;;;;;;5030639;28;20198;-62
2022/11/14 10:42:42;;;;;;;19.47;15.23;;;12.00;72.50;;;;;;5012823;28;20214;-62
2022/11/14 10:45:25;;;;;;;20.23;15.07;;;12.30;71.00;;;;;;5004378;28;20226;-62
2022/11/14 10:48:01;;;;;;;21.80;15.93;;;12.30;71.50;;;;;;5006181;28;20186;-62
2022/11/14 10:50:39;;;;;;;21.30;14.90;;;12.30;71.30;;;;;;5029871;28;20274;-62
2022/11/14 10:53:17;;;;;;;18.63;13.93;;;12.30;71.30;;;;;;5032410;28;20211;-62
2022/11/14 10:55:48;;;;;;;22.33;16.77;;;12.50;71.20;;;;;;5014226;28;20186;-62
2022/11/14 10:58:14;;;;;;;22.90;17.20;;;12.50;70.60;;;;;;5012815;28;20558;-61
2022/11/14 11:00:40;;;;;;;20.53;14.80;;;12.60;71.10;;;;;;5015316;28;20184;-62
2022/11/14 11:03:06;;;;;;;22.00;16.43;;;12.60;70.90;;;;;;5004044;28;20670;-61
2022/11/14 11:05:48;;;;;;;20.37;14.37;;;12.70;71.10;;;;;;5013953;28;20215;-61
2022/11/14 11:11:31;;;;;;;22.00;15.53;;;12.70;69.60;;;;;;5020955;28;20195;-62
2022/11/14 11:13:59;;;;;;;19.03;14.40;;;12.70;70.10;;;;;;5011787;28;20691;-61
2022/11/14 11:16:26;;;;;;;20.70;15.97;;;12.90;70.00;;;;;;5028662;28;20223;-61
2022/11/14 11:18:52;;;;;;;19.20;14.40;;;13.10;70.10;;;;;;5022662;28;20586;-64
2022/11/14 11:21:21;;;;;;;22.00;15.93;;;13.30;70.20;;;;;;5012051;28;20761;-62
2022/11/14 11:23:55;;;;;;;24.10;16.73;;;13.50;70.00;;;;;;5028789;28;20187;-62
2022/11/14 11:26:25;;;;;;;22.07;15.20;;;13.60;68.30;;;;;;5033448;28;20187;-62
2022/11/14 11:29:11;;;;;;;19.37;14.83;;;13.60;68.50;;;;;;5028540;28;20172;-62
2022/11/14 11:31:59;;;;;;;20.37;13.87;;;13.80;68.20;;;;;;5027785;28;20180;-61
2022/11/14 11:34:27;;;;;;;22.20;16.67;;;13.80;67.60;;;;;;5012430;28;20219;-63
2022/11/14 11:37:16;;;;;;;25.07;17.13;;;13.80;66.70;;;;;;5007681;28;20290;-62
2022/11/14 11:39:51;;;;;;;19.97;14.83;;;13.60;67.80;;;;;;5009010;28;20184;-62
2022/11/14 11:42:30;;;;;;;19.97;16.23;;;13.60;68.10;;;;;;5028517;28;20207;-62
2022/11/14 11:45:01;;;;;;;21.30;15.63;;;13.60;68.20;;;;;;5036822;28;20692;-62
2022/11/14 11:47:29;;;;;;;22.13;16.50;;;13.70;68.20;;;;;;5028410;28;20180;-62
2022/11/14 11:49:56;;;;;;;22.77;17.50;;;13.70;68.00;;;;;;5012677;28;20207;-62
2022/11/14 11:52:33;;;;;;;21.40;14.27;;;13.70;68.10;;;;;;5013096;28;20211;-62
2022/11/14 11:55:08;;;;;;;19.77;14.83;;;13.70;67.90;;;;;;5011616;28;20199;-63
2022/11/14 11:57:41;;;;;;;19.37;14.43;;;13.80;67.80;;;;;;5009568;28;20183;-62
2022/11/14 12:00:14;;;;;;;22.33;14.73;;;13.90;67.70;;;;;;5012912;28;20188;-62
2022/11/14 12:02:43;;;;;;;14.67;11.83;;;14.00;67.60;;;;;;5028966;28;20233;-62
2022/11/14 12:05:44;;;;;;;18.63;14.07;;;14.00;67.30;;;;;;5012441;28;20194;-62
2022/11/14 12:08:14;;;;;;;23.00;15.20;;;14.10;66.80;;;;;;5010189;28;20185;-62
2022/11/14 12:10:41;;;;;;;22.10;16.53;;;14.20;66.40;;;;;;5010909;28;20198;-63
2022/11/14 12:13:30;;;;;;;15.53;12.57;;;14.20;65.80;;;;;;4994570;28;20308;-62
2022/11/14 12:16:20;;;;;;;19.07;14.37;;;14.30;65.70;;;;;;5006959;28;20184;-62
2022/11/14 12:19:09;;;;;;;18.93;14.47;;;14.30;65.70;;;;;;5014803;28;20320;-62
2022/11/14 12:22:04;;;;;;;20.37;14.00;;;14.30;65.00;;;;;;5011375;28;20214;-62
2022/11/14 12:25:11;;;;;;;17.03;13.47;;;14.30;65.10;;;;;;4961724;28;20193;-62
2022/11/14 12:27:54;;;;;;;17.87;14.17;;;14.30;65.30;;;;;;5008618;28;20384;-61
2022/11/14 12:30:22;;;;;;;22.17;14.23;;;14.40;64.70;;;;;;5011620;28;20183;-62
2022/11/14 12:33:14;;;;;;;21.63;15.30;;;14.50;64.80;;;;;;5010853;28;20242;-62
2022/11/14 12:35:52;;;;;;;22.27;16.00;;;14.50;65.80;;;;;;5007344;28;20250;-62
2022/11/14 12:38:19;;;;;;;23.67;16.00;;;14.50;64.10;;;;;;5016266;28;20180;-61
2022/11/14 12:40:55;;;;;;;23.33;14.37;;;14.50;63.70;;;;;;4996585;28;20559;-61
2022/11/14 12:43:30;;;;;;;22.33;14.40;;;14.70;63.20;;;;;;5028554;28;20186;-61
2022/11/14 12:45:57;;;;;;;19.27;13.87;;;14.70;64.00;;;;;;5009257;28;20674;-62